sensor_id;sensor_type;location;lat;lon;timestamp;temperature;humidity
47168;DHT22;32931;47.778;17.806;2023-09-19T00:00:22;24.00;97.90
47168;DHT22;32931;47.778;17.806;2023-09-19T00:02:53;24.00;97.90
47168;DHT22;32931;47.778;17.806;2023-09-19T00:05:20;24.10;98.00
47168;DHT22;32931;47.778;17.806;2023-09-19T00:07:51;24.10;98.00
47168;DHT22;32931;47.778;17.806;2023-09-19T00:10:21;24.10;98.10
47168;DHT22;32931;47.778;17.806;2023-09-19T00:12:47;24.10;98.10
47168;DHT22;32931;47.778;17.806;2023-09-19T00:15:14;24.10;98.20
47168;DHT22;32931;47.778;17.806;2023-09-19T00:17:43;24.10;98.10
47168;DHT22;32931;47.778;17.806;2023-09-19T00:20:10;24.10;98.20
47168;DHT22;32931;47.778;17.806;2023-09-19T00:22:42;24.10;98.20
47168;DHT22;32931;47.778;17.806;2023-09-19T00:25:11;24.20;98.20
47168;DHT22;32931;47.778;17.806;2023-09-19T00:27:41;24.20;98.20
47168;DHT22;32931;47.778;17.806;2023-09-19T00:30:09;24.20;98.30
47168;DHT22;32931;47.778;17.806;2023-09-19T00:32:43;24.20;98.20
47168;DHT22;32931;47.778;17.806;2023-09-19T00:35:10;24.20;98.30
47168;DHT22;32931;47.778;17.806;2023-09-19T00:37:37;24.20;98.40
47168;DHT22;32931;47.778;17.806;2023-09-19T00:40:06;24.20;98.40
47168;DHT22;32931;47.778;17.806;2023-09-19T00:42:36;24.20;98.40
47168;DHT22;32931;47.778;17.806;2023-09-19T00:45:05;24.10;98.30
47168;DHT22;32931;47.778;17.806;2023-09-19T00:47:31;24.00;98.30
47168;DHT22;32931;47.778;17.806;2023-09-19T00:49:57;24.00;98.20
47168;DHT22;32931;47.778;17.806;2023-09-19T00:52:24;23.90;98.00
47168;DHT22;32931;47.778;17.806;2023-09-19T00:54:51;23.90;97.80
47168;DHT22;32931;47.778;17.806;2023-09-19T00:57:18;23.80;97.60
47168;DHT22;32931;47.778;17.806;2023-09-19T00:59:48;23.70;97.40
47168;DHT22;32931;47.778;17.806;2023-09-19T01:02:16;23.70;97.20
47168;DHT22;32931;47.778;17.806;2023-09-19T01:04:43;23.70;97.20
47168;DHT22;32931;47.778;17.806;2023-09-19T01:07:10;23.70;97.10
47168;DHT22;32931;47.778;17.806;2023-09-19T01:09:36;23.60;97.10
47168;DHT22;32931;47.778;17.806;2023-09-19T01:12:05;23.60;97.00
47168;DHT22;32931;47.778;17.806;2023-09-19T01:14:42;23.60;97.10
47168;DHT22;32931;47.778;17.806;2023-09-19T01:17:25;23.50;96.70
47168;DHT22;32931;47.778;17.806;2023-09-19T01:22:42;23.40;96.30
47168;DHT22;32931;47.778;17.806;2023-09-19T01:28:31;23.20;95.90
47168;DHT22;32931;47.778;17.806;2023-09-19T01:31:02;23.20;96.00
47168;DHT22;32931;47.778;17.806;2023-09-19T01:36:43;23.20;95.90
47168;DHT22;32931;47.778;17.806;2023-09-19T01:39:12;23.20;95.80
47168;DHT22;32931;47.778;17.806;2023-09-19T01:42:00;23.20;95.90
47168;DHT22;32931;47.778;17.806;2023-09-19T01:44:51;23.20;95.70
47168;DHT22;32931;47.778;17.806;2023-09-19T01:50:07;23.20;96.00
47168;DHT22;32931;47.778;17.806;2023-09-19T01:52:43;23.20;96.10
47168;DHT22;32931;47.778;17.806;2023-09-19T01:55:12;23.00;95.90
47168;DHT22;32931;47.778;17.806;2023-09-19T01:58:01;22.90;96.00
47168;DHT22;32931;47.778;17.806;2023-09-19T02:00:34;22.80;95.80
47168;DHT22;32931;47.778;17.806;2023-09-19T02:03:03;22.60;96.00
47168;DHT22;32931;47.778;17.806;2023-09-19T02:05:29;22.60;96.10
47168;DHT22;32931;47.778;17.806;2023-09-19T02:07:56;22.50;96.20
47168;DHT22;32931;47.778;17.806;2023-09-19T02:10:22;22.40;96.50
47168;DHT22;32931;47.778;17.806;2023-09-19T02:12:50;22.30;96.90
47168;DHT22;32931;47.778;17.806;2023-09-19T02:15:16;22.30;97.30
47168;DHT22;32931;47.778;17.806;2023-09-19T02:17:43;22.20;97.50
47168;DHT22;32931;47.778;17.806;2023-09-19T02:20:11;22.20;97.60
47168;DHT22;32931;47.778;17.806;2023-09-19T02:22:43;22.20;97.80
47168;DHT22;32931;47.778;17.806;2023-09-19T02:25:10;22.10;98.10
47168;DHT22;32931;47.778;17.806;2023-09-19T02:27:36;22.00;98.40
47168;DHT22;32931;47.778;17.806;2023-09-19T02:30:04;22.00;98.70
47168;DHT22;32931;47.778;17.806;2023-09-19T02:32:32;21.80;99.20
47168;DHT22;32931;47.778;17.806;2023-09-19T02:35:01;21.70;99.70
47168;DHT22;32931;47.778;17.806;2023-09-19T02:37:28;21.60;99.90
47168;DHT22;32931;47.778;17.806;2023-09-19T02:39:54;21.50;99.90
47168;DHT22;32931;47.778;17.806;2023-09-19T02:42:20;21.40;99.90
47168;DHT22;32931;47.778;17.806;2023-09-19T02:44:46;21.20;99.90
47168;DHT22;32931;47.778;17.806;2023-09-19T02:47:14;21.10;99.90
47168;DHT22;32931;47.778;17.806;2023-09-19T02:49:41;21.00;99.90
47168;DHT22;32931;47.778;17.806;2023-09-19T02:52:08;21.10;99.90
47168;DHT22;32931;47.778;17.806;2023-09-19T02:54:34;20.90;99.90
47168;DHT22;32931;47.778;17.806;2023-09-19T02:57:00;20.90;99.90
47168;DHT22;32931;47.778;17.806;2023-09-19T02:59:27;20.90;99.90
47168;DHT22;32931;47.778;17.806;2023-09-19T03:01:54;20.70;99.90
47168;DHT22;32931;47.778;17.806;2023-09-19T03:04:21;20.70;99.90
47168;DHT22;32931;47.778;17.806;2023-09-19T03:06:47;20.50;99.90
47168;DHT22;32931;47.778;17.806;2023-09-19T03:09:14;20.60;99.90
47168;DHT22;32931;47.778;17.806;2023-09-19T03:11:42;20.50;99.90
47168;DHT22;32931;47.778;17.806;2023-09-19T03:14:08;20.60;99.90
47168;DHT22;32931;47.778;17.806;2023-09-19T03:16:36;20.40;99.90
47168;DHT22;32931;47.778;17.806;2023-09-19T03:19:03;20.40;99.90
47168;DHT22;32931;47.778;17.806;2023-09-19T03:21:29;20.40;99.90
47168;DHT22;32931;47.778;17.806;2023-09-19T03:23:56;20.30;99.90
47168;DHT22;32931;47.778;17.806;2023-09-19T03:26:22;20.20;99.90
47168;DHT22;32931;47.778;17.806;2023-09-19T03:28:48;20.30;99.90
47168;DHT22;32931;47.778;17.806;2023-09-19T03:31:15;20.20;99.90
47168;DHT22;32931;47.778;17.806;2023-09-19T03:33:41;20.10;99.90
47168;DHT22;32931;47.778;17.806;2023-09-19T03:36:07;20.00;99.90
47168;DHT22;32931;47.778;17.806;2023-09-19T03:38:34;20.00;99.90
47168;DHT22;32931;47.778;17.806;2023-09-19T03:41:01;20.00;99.90
47168;DHT22;32931;47.778;17.806;2023-09-19T03:43:27;20.00;99.90
47168;DHT22;32931;47.778;17.806;2023-09-19T03:45:54;20.10;99.90
47168;DHT22;32931;47.778;17.806;2023-09-19T03:48:20;20.10;99.90
47168;DHT22;32931;47.778;17.806;2023-09-19T03:50:48;20.00;99.90
47168;DHT22;32931;47.778;17.806;2023-09-19T03:53:14;19.90;99.90
47168;DHT22;32931;47.778;17.806;2023-09-19T03:55:40;19.80;99.90
47168;DHT22;32931;47.778;17.806;2023-09-19T03:58:06;19.50;99.90
47168;DHT22;32931;47.778;17.806;2023-09-19T04:00:32;19.30;99.90
47168;DHT22;32931;47.778;17.806;2023-09-19T04:03:00;19.30;99.90
47168;DHT22;32931;47.778;17.806;2023-09-19T04:05:31;19.10;99.90
47168;DHT22;32931;47.778;17.806;2023-09-19T04:07:58;19.00;99.90
47168;DHT22;32931;47.778;17.806;2023-09-19T04:10:24;18.90;99.90
47168;DHT22;32931;47.778;17.806;2023-09-19T04:12:55;18.80;99.90
47168;DHT22;32931;47.778;17.806;2023-09-19T04:15:21;18.70;99.90
47168;DHT22;32931;47.778;17.806;2023-09-19T04:17:51;18.70;99.90
47168;DHT22;32931;47.778;17.806;2023-09-19T04:20:18;18.60;99.90
47168;DHT22;32931;47.778;17.806;2023-09-19T04:22:46;18.60;99.90
47168;DHT22;32931;47.778;17.806;2023-09-19T04:25:13;18.50;99.90
47168;DHT22;32931;47.778;17.806;2023-09-19T04:27:39;18.30;99.90
47168;DHT22;32931;47.778;17.806;2023-09-19T04:30:07;18.20;99.90
47168;DHT22;32931;47.778;17.806;2023-09-19T04:32:38;18.10;99.90
47168;DHT22;32931;47.778;17.806;2023-09-19T04:35:07;18.10;99.90
47168;DHT22;32931;47.778;17.806;2023-09-19T04:37:40;18.10;99.90
47168;DHT22;32931;47.778;17.806;2023-09-19T04:40:07;18.10;99.90
47168;DHT22;32931;47.778;17.806;2023-09-19T04:42:41;18.10;99.90
47168;DHT22;32931;47.778;17.806;2023-09-19T04:45:08;18.10;99.90
47168;DHT22;32931;47.778;17.806;2023-09-19T04:47:37;18.10;99.90
47168;DHT22;32931;47.778;17.806;2023-09-19T04:50:08;18.20;99.90
47168;DHT22;32931;47.778;17.806;2023-09-19T04:52:39;18.20;99.90
47168;DHT22;32931;47.778;17.806;2023-09-19T04:55:17;18.20;99.90
47168;DHT22;32931;47.778;17.806;2023-09-19T04:57:51;18.20;99.90
47168;DHT22;32931;47.778;17.806;2023-09-19T05:00:20;18.20;99.90
47168;DHT22;32931;47.778;17.806;2023-09-19T05:02:54;18.20;99.90
47168;DHT22;32931;47.778;17.806;2023-09-19T05:05:22;18.20;99.90
47168;DHT22;32931;47.778;17.806;2023-09-19T05:07:49;18.30;99.90
47168;DHT22;32931;47.778;17.806;2023-09-19T05:10:17;18.40;99.90
47168;DHT22;32931;47.778;17.806;2023-09-19T05:12:46;18.40;99.90
47168;DHT22;32931;47.778;17.806;2023-09-19T05:15:14;18.40;99.90
47168;DHT22;32931;47.778;17.806;2023-09-19T05:17:41;18.50;99.90
47168;DHT22;32931;47.778;17.806;2023-09-19T05:20:07;18.50;99.90
47168;DHT22;32931;47.778;17.806;2023-09-19T05:22:44;18.50;99.90
47168;DHT22;32931;47.778;17.806;2023-09-19T05:25:12;18.50;99.90
47168;DHT22;32931;47.778;17.806;2023-09-19T05:27:43;18.60;99.90
47168;DHT22;32931;47.778;17.806;2023-09-19T05:30:10;18.60;99.90
47168;DHT22;32931;47.778;17.806;2023-09-19T05:32:36;18.60;99.90
47168;DHT22;32931;47.778;17.806;2023-09-19T05:35:02;18.70;99.90
47168;DHT22;32931;47.778;17.806;2023-09-19T05:37:29;18.60;99.90
47168;DHT22;32931;47.778;17.806;2023-09-19T05:39:55;18.70;99.90
47168;DHT22;32931;47.778;17.806;2023-09-19T05:42:21;18.70;99.90
47168;DHT22;32931;47.778;17.806;2023-09-19T05:44:47;18.80;99.90
47168;DHT22;32931;47.778;17.806;2023-09-19T05:47:13;18.80;99.90
47168;DHT22;32931;47.778;17.806;2023-09-19T05:49:39;18.90;99.90
47168;DHT22;32931;47.778;17.806;2023-09-19T05:52:07;18.90;99.90
47168;DHT22;32931;47.778;17.806;2023-09-19T05:54:33;19.00;99.90
47168;DHT22;32931;47.778;17.806;2023-09-19T05:57:03;19.00;99.90
47168;DHT22;32931;47.778;17.806;2023-09-19T05:59:29;19.00;99.90
47168;DHT22;32931;47.778;17.806;2023-09-19T06:01:55;19.10;99.90
47168;DHT22;32931;47.778;17.806;2023-09-19T06:04:21;19.20;99.90
47168;DHT22;32931;47.778;17.806;2023-09-19T06:06:48;19.20;99.90
47168;DHT22;32931;47.778;17.806;2023-09-19T06:09:14;19.30;99.90
47168;DHT22;32931;47.778;17.806;2023-09-19T06:11:44;19.30;99.90
47168;DHT22;32931;47.778;17.806;2023-09-19T06:14:10;19.30;99.90
47168;DHT22;32931;47.778;17.806;2023-09-19T06:16:36;19.30;99.90
47168;DHT22;32931;47.778;17.806;2023-09-19T06:19:04;19.30;99.90
47168;DHT22;32931;47.778;17.806;2023-09-19T06:21:34;19.30;99.90
47168;DHT22;32931;47.778;17.806;2023-09-19T06:24:00;19.30;99.90
47168;DHT22;32931;47.778;17.806;2023-09-19T06:26:27;19.30;99.90
47168;DHT22;32931;47.778;17.806;2023-09-19T06:28:53;19.30;99.90
47168;DHT22;32931;47.778;17.806;2023-09-19T06:31:19;19.40;99.90
47168;DHT22;32931;47.778;17.806;2023-09-19T06:33:48;19.40;99.90
47168;DHT22;32931;47.778;17.806;2023-09-19T06:36:14;19.40;99.90
47168;DHT22;32931;47.778;17.806;2023-09-19T06:38:41;19.40;99.90
47168;DHT22;32931;47.778;17.806;2023-09-19T06:41:07;19.50;99.90
47168;DHT22;32931;47.778;17.806;2023-09-19T06:43:34;19.50;99.90
47168;DHT22;32931;47.778;17.806;2023-09-19T06:46:03;19.60;99.90
47168;DHT22;32931;47.778;17.806;2023-09-19T06:48:30;19.60;99.90
47168;DHT22;32931;47.778;17.806;2023-09-19T06:50:56;19.60;99.90
47168;DHT22;32931;47.778;17.806;2023-09-19T06:53:24;19.60;99.90
47168;DHT22;32931;47.778;17.806;2023-09-19T06:55:51;19.70;99.90
47168;DHT22;32931;47.778;17.806;2023-09-19T06:58:17;19.70;99.90
47168;DHT22;32931;47.778;17.806;2023-09-19T07:00:43;19.80;99.90
47168;DHT22;32931;47.778;17.806;2023-09-19T07:03:10;19.80;99.90
47168;DHT22;32931;47.778;17.806;2023-09-19T07:05:40;19.90;99.90
47168;DHT22;32931;47.778;17.806;2023-09-19T07:08:08;19.90;99.90
47168;DHT22;32931;47.778;17.806;2023-09-19T07:10:36;19.90;99.90
47168;DHT22;32931;47.778;17.806;2023-09-19T07:13:04;19.90;99.90
47168;DHT22;32931;47.778;17.806;2023-09-19T07:15:36;19.90;99.90
47168;DHT22;32931;47.778;17.806;2023-09-19T07:18:05;19.90;99.90
47168;DHT22;32931;47.778;17.806;2023-09-19T07:20:32;19.90;99.90
47168;DHT22;32931;47.778;17.806;2023-09-19T07:22:58;20.00;99.90
47168;DHT22;32931;47.778;17.806;2023-09-19T07:25:28;20.00;99.90
47168;DHT22;32931;47.778;17.806;2023-09-19T07:27:58;20.00;99.90
47168;DHT22;32931;47.778;17.806;2023-09-19T07:30:26;20.00;99.90
47168;DHT22;32931;47.778;17.806;2023-09-19T07:32:53;20.00;99.90
47168;DHT22;32931;47.778;17.806;2023-09-19T07:35:19;20.00;99.90
47168;DHT22;32931;47.778;17.806;2023-09-19T07:37:49;20.00;99.90
47168;DHT22;32931;47.778;17.806;2023-09-19T07:40:16;20.00;99.90
47168;DHT22;32931;47.778;17.806;2023-09-19T07:42:42;20.00;99.90
47168;DHT22;32931;47.778;17.806;2023-09-19T07:45:11;20.10;99.90
47168;DHT22;32931;47.778;17.806;2023-09-19T07:47:47;20.10;99.90
47168;DHT22;32931;47.778;17.806;2023-09-19T07:50:14;20.00;99.90
47168;DHT22;32931;47.778;17.806;2023-09-19T07:52:42;20.00;99.90
47168;DHT22;32931;47.778;17.806;2023-09-19T07:55:09;20.00;99.90
47168;DHT22;32931;47.778;17.806;2023-09-19T07:57:37;19.90;99.90
47168;DHT22;32931;47.778;17.806;2023-09-19T08:00:04;19.80;99.90
47168;DHT22;32931;47.778;17.806;2023-09-19T08:02:35;19.80;99.90
47168;DHT22;32931;47.778;17.806;2023-09-19T08:05:01;19.80;99.90
47168;DHT22;32931;47.778;17.806;2023-09-19T08:07:32;19.90;99.90
47168;DHT22;32931;47.778;17.806;2023-09-19T08:09:58;19.90;99.90
47168;DHT22;32931;47.778;17.806;2023-09-19T08:12:25;19.80;99.90
47168;DHT22;32931;47.778;17.806;2023-09-19T08:14:51;19.90;99.90
47168;DHT22;32931;47.778;17.806;2023-09-19T08:17:17;19.90;99.90
47168;DHT22;32931;47.778;17.806;2023-09-19T08:19:43;19.90;99.90
47168;DHT22;32931;47.778;17.806;2023-09-19T08:22:12;19.90;99.90
47168;DHT22;32931;47.778;17.806;2023-09-19T08:24:38;20.00;99.90
47168;DHT22;32931;47.778;17.806;2023-09-19T08:27:04;20.00;99.90
47168;DHT22;32931;47.778;17.806;2023-09-19T08:29:33;20.00;99.90
47168;DHT22;32931;47.778;17.806;2023-09-19T08:32:01;19.90;99.90
47168;DHT22;32931;47.778;17.806;2023-09-19T08:34:27;19.90;99.90
47168;DHT22;32931;47.778;17.806;2023-09-19T08:36:54;19.90;99.90
47168;DHT22;32931;47.778;17.806;2023-09-19T08:39:24;19.80;99.90
47168;DHT22;32931;47.778;17.806;2023-09-19T08:42:00;19.80;99.90
47168;DHT22;32931;47.778;17.806;2023-09-19T08:44:28;19.80;99.90
47168;DHT22;32931;47.778;17.806;2023-09-19T08:47:07;19.80;99.90
47168;DHT22;32931;47.778;17.806;2023-09-19T08:52:28;19.90;99.90
47168;DHT22;32931;47.778;17.806;2023-09-19T08:54:59;19.80;99.90
47168;DHT22;32931;47.778;17.806;2023-09-19T08:57:33;19.80;99.90
47168;DHT22;32931;47.778;17.806;2023-09-19T09:00:02;19.80;99.90
47168;DHT22;32931;47.778;17.806;2023-09-19T09:02:31;19.80;99.90
47168;DHT22;32931;47.778;17.806;2023-09-19T09:05:00;19.90;99.90
47168;DHT22;32931;47.778;17.806;2023-09-19T09:07:27;20.00;99.90
47168;DHT22;32931;47.778;17.806;2023-09-19T09:09:54;20.10;99.90
47168;DHT22;32931;47.778;17.806;2023-09-19T09:12:21;20.10;99.90
47168;DHT22;32931;47.778;17.806;2023-09-19T09:14:48;20.10;99.90
47168;DHT22;32931;47.778;17.806;2023-09-19T09:17:17;20.20;99.90
47168;DHT22;32931;47.778;17.806;2023-09-19T09:19:48;20.30;99.90
47168;DHT22;32931;47.778;17.806;2023-09-19T09:22:15;20.30;99.90
47168;DHT22;32931;47.778;17.806;2023-09-19T09:24:59;20.40;99.90
47168;DHT22;32931;47.778;17.806;2023-09-19T09:27:29;20.40;99.90
47168;DHT22;32931;47.778;17.806;2023-09-19T09:29:57;20.50;99.90
47168;DHT22;32931;47.778;17.806;2023-09-19T09:32:25;20.50;99.90
47168;DHT22;32931;47.778;17.806;2023-09-19T09:34:53;20.60;99.90
47168;DHT22;32931;47.778;17.806;2023-09-19T09:37:20;20.60;99.90
47168;DHT22;32931;47.778;17.806;2023-09-19T09:39:55;20.60;99.90
47168;DHT22;32931;47.778;17.806;2023-09-19T09:42:35;20.70;99.90
47168;DHT22;32931;47.778;17.806;2023-09-19T09:45:19;20.80;99.90
47168;DHT22;32931;47.778;17.806;2023-09-19T09:48:04;20.80;99.90
47168;DHT22;32931;47.778;17.806;2023-09-19T09:50:47;20.70;99.90
47168;DHT22;32931;47.778;17.806;2023-09-19T09:53:24;20.80;99.90
47168;DHT22;32931;47.778;17.806;2023-09-19T09:56:05;20.70;99.90
47168;DHT22;32931;47.778;17.806;2023-09-19T09:58:51;20.70;99.90
47168;DHT22;32931;47.778;17.806;2023-09-19T10:01:20;20.70;99.90
47168;DHT22;32931;47.778;17.806;2023-09-19T10:03:47;20.70;99.90
47168;DHT22;32931;47.778;17.806;2023-09-19T10:06:15;20.70;99.90
47168;DHT22;32931;47.778;17.806;2023-09-19T10:11:47;20.90;99.90
47168;DHT22;32931;47.778;17.806;2023-09-19T10:14:17;20.90;99.90
47168;DHT22;32931;47.778;17.806;2023-09-19T10:16:49;20.90;99.90
47168;DHT22;32931;47.778;17.806;2023-09-19T10:19:42;20.90;99.90
47168;DHT22;32931;47.778;17.806;2023-09-19T10:22:14;20.90;99.90
47168;DHT22;32931;47.778;17.806;2023-09-19T10:24:48;20.80;99.90
47168;DHT22;32931;47.778;17.806;2023-09-19T10:27:19;20.80;99.90
47168;DHT22;32931;47.778;17.806;2023-09-19T10:29:48;20.80;99.90
47168;DHT22;32931;47.778;17.806;2023-09-19T10:32:16;20.90;99.90
47168;DHT22;32931;47.778;17.806;2023-09-19T10:34:46;20.90;99.90
47168;DHT22;32931;47.778;17.806;2023-09-19T10:37:13;21.00;99.90
47168;DHT22;32931;47.778;17.806;2023-09-19T10:39:45;20.90;99.90
47168;DHT22;32931;47.778;17.806;2023-09-19T10:42:15;21.00;99.90
47168;DHT22;32931;47.778;17.806;2023-09-19T10:44:45;21.00;99.90
47168;DHT22;32931;47.778;17.806;2023-09-19T10:47:13;21.10;99.90
47168;DHT22;32931;47.778;17.806;2023-09-19T10:49:47;21.00;99.90
47168;DHT22;32931;47.778;17.806;2023-09-19T10:52:20;21.20;99.90
47168;DHT22;32931;47.778;17.806;2023-09-19T10:54:51;21.30;99.90
47168;DHT22;32931;47.778;17.806;2023-09-19T10:57:22;21.50;99.90
47168;DHT22;32931;47.778;17.806;2023-09-19T11:00:05;21.50;99.90
47168;DHT22;32931;47.778;17.806;2023-09-19T11:03:17;21.70;99.90
47168;DHT22;32931;47.778;17.806;2023-09-19T11:06:16;21.90;99.90
47168;DHT22;32931;47.778;17.806;2023-09-19T11:09:02;21.90;99.90
47168;DHT22;32931;47.778;17.806;2023-09-19T11:11:47;21.90;99.90
47168;DHT22;32931;47.778;17.806;2023-09-19T11:30:48;22.40;99.90
47168;DHT22;32931;47.778;17.806;2023-09-19T11:33:32;22.50;99.90
47168;DHT22;32931;47.778;17.806;2023-09-19T11:36:09;22.50;99.90
47168;DHT22;32931;47.778;17.806;2023-09-19T11:46:52;22.60;99.90
47168;DHT22;32931;47.778;17.806;2023-09-19T11:49:26;22.70;99.90
47168;DHT22;32931;47.778;17.806;2023-09-19T11:51:58;22.60;99.90
47168;DHT22;32931;47.778;17.806;2023-09-19T11:54:31;22.70;99.90
47168;DHT22;32931;47.778;17.806;2023-09-19T11:56:59;22.80;99.90
47168;DHT22;32931;47.778;17.806;2023-09-19T11:59:31;22.80;99.90
47168;DHT22;32931;47.778;17.806;2023-09-19T12:02:04;22.70;99.90
47168;DHT22;32931;47.778;17.806;2023-09-19T12:07:16;22.80;99.90
47168;DHT22;32931;47.778;17.806;2023-09-19T12:09:42;22.70;99.90
47168;DHT22;32931;47.778;17.806;2023-09-19T12:12:25;22.80;99.90
47168;DHT22;32931;47.778;17.806;2023-09-19T12:14:54;22.90;99.90
47168;DHT22;32931;47.778;17.806;2023-09-19T12:17:21;22.90;99.90
47168;DHT22;32931;47.778;17.806;2023-09-19T12:19:55;22.90;99.90
47168;DHT22;32931;47.778;17.806;2023-09-19T12:22:21;22.80;99.90
47168;DHT22;32931;47.778;17.806;2023-09-19T12:24:48;22.90;99.90
47168;DHT22;32931;47.778;17.806;2023-09-19T12:27:14;22.90;99.90
47168;DHT22;32931;47.778;17.806;2023-09-19T12:29:45;23.00;99.90
47168;DHT22;32931;47.778;17.806;2023-09-19T12:32:12;23.00;99.90
47168;DHT22;32931;47.778;17.806;2023-09-19T12:34:38;23.00;99.90
47168;DHT22;32931;47.778;17.806;2023-09-19T12:37:14;22.90;99.90
47168;DHT22;32931;47.778;17.806;2023-09-19T12:39:51;22.90;99.90
47168;DHT22;32931;47.778;17.806;2023-09-19T12:42:24;23.00;99.90
47168;DHT22;32931;47.778;17.806;2023-09-19T12:44:54;23.10;99.90
47168;DHT22;32931;47.778;17.806;2023-09-19T12:47:24;23.20;99.90
47168;DHT22;32931;47.778;17.806;2023-09-19T12:52:47;23.20;99.90
47168;DHT22;32931;47.778;17.806;2023-09-19T13:00:34;23.40;99.90
47168;DHT22;32931;47.778;17.806;2023-09-19T13:05:59;23.40;99.90
47168;DHT22;32931;47.778;17.806;2023-09-19T13:08:30;23.50;99.90
47168;DHT22;32931;47.778;17.806;2023-09-19T13:16:08;23.50;99.90
47168;DHT22;32931;47.778;17.806;2023-09-19T13:18:44;23.50;99.90
47168;DHT22;32931;47.778;17.806;2023-09-19T13:21:14;23.60;99.90
47168;DHT22;32931;47.778;17.806;2023-09-19T13:23:54;23.60;99.90
47168;DHT22;32931;47.778;17.806;2023-09-19T13:26:27;23.60;99.90
47168;DHT22;32931;47.778;17.806;2023-09-19T13:28:56;23.70;99.90
47168;DHT22;32931;47.778;17.806;2023-09-19T13:31:22;23.70;99.90
47168;DHT22;32931;47.778;17.806;2023-09-19T13:33:49;23.70;99.90
47168;DHT22;32931;47.778;17.806;2023-09-19T13:36:16;23.70;99.90
47168;DHT22;32931;47.778;17.806;2023-09-19T13:38:44;23.70;99.90
47168;DHT22;32931;47.778;17.806;2023-09-19T13:41:11;23.60;99.90
47168;DHT22;32931;47.778;17.806;2023-09-19T13:43:37;23.50;99.90
47168;DHT22;32931;47.778;17.806;2023-09-19T13:46:05;23.50;99.90
47168;DHT22;32931;47.778;17.806;2023-09-19T13:48:34;23.50;99.90
47168;DHT22;32931;47.778;17.806;2023-09-19T13:51:04;23.50;99.90
47168;DHT22;32931;47.778;17.806;2023-09-19T13:53:30;23.60;99.90
47168;DHT22;32931;47.778;17.806;2023-09-19T13:55:56;23.60;99.90
47168;DHT22;32931;47.778;17.806;2023-09-19T13:58:22;23.70;99.90
47168;DHT22;32931;47.778;17.806;2023-09-19T14:00:50;23.70;99.90
47168;DHT22;32931;47.778;17.806;2023-09-19T14:03:16;23.80;99.90
47168;DHT22;32931;47.778;17.806;2023-09-19T14:05:42;23.80;99.90
47168;DHT22;32931;47.778;17.806;2023-09-19T14:08:08;24.00;99.90
47168;DHT22;32931;47.778;17.806;2023-09-19T14:10:35;24.00;99.90
47168;DHT22;32931;47.778;17.806;2023-09-19T14:13:01;24.00;99.90
47168;DHT22;32931;47.778;17.806;2023-09-19T14:15:27;24.10;99.90
47168;DHT22;32931;47.778;17.806;2023-09-19T14:17:58;24.10;99.90
47168;DHT22;32931;47.778;17.806;2023-09-19T14:20:27;24.10;99.90
47168;DHT22;32931;47.778;17.806;2023-09-19T14:22:54;24.10;99.90
47168;DHT22;32931;47.778;17.806;2023-09-19T14:25:21;24.10;99.90
47168;DHT22;32931;47.778;17.806;2023-09-19T14:27:47;24.10;99.90
47168;DHT22;32931;47.778;17.806;2023-09-19T14:30:14;24.10;99.90
47168;DHT22;32931;47.778;17.806;2023-09-19T14:32:41;24.10;99.90
47168;DHT22;32931;47.778;17.806;2023-09-19T14:35:07;24.10;99.90
47168;DHT22;32931;47.778;17.806;2023-09-19T14:37:35;24.00;99.90
47168;DHT22;32931;47.778;17.806;2023-09-19T14:40:01;24.00;99.90
47168;DHT22;32931;47.778;17.806;2023-09-19T14:42:29;24.00;99.90
47168;DHT22;32931;47.778;17.806;2023-09-19T14:44:55;24.00;99.90
47168;DHT22;32931;47.778;17.806;2023-09-19T14:47:21;24.00;99.90
47168;DHT22;32931;47.778;17.806;2023-09-19T14:49:49;24.00;99.90
47168;DHT22;32931;47.778;17.806;2023-09-19T14:52:15;24.00;99.90
47168;DHT22;32931;47.778;17.806;2023-09-19T14:54:41;24.00;99.80
47168;DHT22;32931;47.778;17.806;2023-09-19T14:57:07;24.00;99.90
47168;DHT22;32931;47.778;17.806;2023-09-19T14:59:35;24.10;99.90
47168;DHT22;32931;47.778;17.806;2023-09-19T15:02:04;24.10;99.70
47168;DHT22;32931;47.778;17.806;2023-09-19T15:04:31;24.10;99.60
47168;DHT22;32931;47.778;17.806;2023-09-19T15:06:57;24.10;99.20
47168;DHT22;32931;47.778;17.806;2023-09-19T15:09:24;24.00;98.60
47168;DHT22;32931;47.778;17.806;2023-09-19T15:11:52;24.00;98.60
47168;DHT22;32931;47.778;17.806;2023-09-19T15:14:19;24.00;98.80
47168;DHT22;32931;47.778;17.806;2023-09-19T15:16:45;24.00;98.70
47168;DHT22;32931;47.778;17.806;2023-09-19T15:19:11;23.90;98.60
47168;DHT22;32931;47.778;17.806;2023-09-19T15:21:38;23.80;98.90
47168;DHT22;32931;47.778;17.806;2023-09-19T15:24:04;23.80;99.00
47168;DHT22;32931;47.778;17.806;2023-09-19T15:26:31;23.80;99.30
47168;DHT22;32931;47.778;17.806;2023-09-19T15:28:57;23.80;99.50
47168;DHT22;32931;47.778;17.806;2023-09-19T15:31:23;23.70;99.40
47168;DHT22;32931;47.778;17.806;2023-09-19T15:33:49;23.60;99.50
47168;DHT22;32931;47.778;17.806;2023-09-19T15:36:16;23.50;99.90
47168;DHT22;32931;47.778;17.806;2023-09-19T15:43:55;22.90;99.90
47168;DHT22;32931;47.778;17.806;2023-09-19T15:46:22;22.90;99.90
47168;DHT22;32931;47.778;17.806;2023-09-19T15:48:48;23.10;99.90
47168;DHT22;32931;47.778;17.806;2023-09-19T15:51:15;23.20;99.90
47168;DHT22;32931;47.778;17.806;2023-09-19T15:56:12;23.70;99.60
47168;DHT22;32931;47.778;17.806;2023-09-19T15:58:40;23.80;99.20
47168;DHT22;32931;47.778;17.806;2023-09-19T16:01:07;23.90;98.70
47168;DHT22;32931;47.778;17.806;2023-09-19T16:03:37;23.90;98.70
47168;DHT22;32931;47.778;17.806;2023-09-19T16:06:11;23.90;98.70
47168;DHT22;32931;47.778;17.806;2023-09-19T16:08:47;23.90;98.40
47168;DHT22;32931;47.778;17.806;2023-09-19T16:11:14;23.80;98.40
47168;DHT22;32931;47.778;17.806;2023-09-19T16:13:41;23.70;98.30
47168;DHT22;32931;47.778;17.806;2023-09-19T16:16:09;23.70;98.20
47168;DHT22;32931;47.778;17.806;2023-09-19T16:18:38;23.60;98.40
47168;DHT22;32931;47.778;17.806;2023-09-19T16:21:06;23.50;98.50
47168;DHT22;32931;47.778;17.806;2023-09-19T16:23:36;23.50;99.00
47168;DHT22;32931;47.778;17.806;2023-09-19T16:26:08;23.40;98.60
47168;DHT22;32931;47.778;17.806;2023-09-19T16:28:40;23.30;98.20
47168;DHT22;32931;47.778;17.806;2023-09-19T16:31:07;23.30;98.30
47168;DHT22;32931;47.778;17.806;2023-09-19T16:33:35;23.20;98.10
47168;DHT22;32931;47.778;17.806;2023-09-19T16:36:07;23.10;98.20